Wilford, Idaho
Current Conditions -  °F | °C
As of 7:16 AM on Thursday 18 Dec 2014 (Local Time) from KRXE Reporting Station
Overcast Overcast  
Wind Chill: 28°   Ceiling: 1400
Heat Index: 28°   Visibility: 7mi
Dew Point: 26°   Wind: 0mph
Humidity: 92%   Direction: NA
Pressure: 30.11"   Gusts: NA
Location:  44.2887°N, 111.507°W
Report Text: KRXE 181416Z AUTO 00000KT 7SM BKN014 OVC029 M02/M03 A3011 RMK AO2 T10221033
Loading
Personal Weather Stations






























Interactive Weather Map New forecast layout! Learn more

10-Day Weather Forecast

Advertisements
Track Severe Weather on mobile